sensor_id;sensor_type;location;lat;lon;timestamp;P1;durP1;ratioP1;P2;durP2;ratioP2
49764;SDS011;35657;51.204;-4.130;2023-01-26T00:00:06;15.10;;;3.03;;
49764;SDS011;35657;51.204;-4.130;2023-01-26T00:02:32;25.80;;;5.70;;
49764;SDS011;35657;51.204;-4.130;2023-01-26T00:04:58;22.67;;;4.82;;
49764;SDS011;35657;51.204;-4.130;2023-01-26T00:07:23;21.30;;;5.13;;
49764;SDS011;35657;51.204;-4.130;2023-01-26T00:09:49;20.27;;;4.68;;
49764;SDS011;35657;51.204;-4.130;2023-01-26T00:12:15;19.95;;;5.03;;
49764;SDS011;35657;51.204;-4.130;2023-01-26T00:14:40;22.42;;;4.97;;
49764;SDS011;35657;51.204;-4.130;2023-01-26T00:17:16;16.65;;;3.85;;
49764;SDS011;35657;51.204;-4.130;2023-01-26T00:19:50;20.52;;;5.18;;
49764;SDS011;35657;51.204;-4.130;2023-01-26T00:22:17;20.80;;;5.00;;
49764;SDS011;35657;51.204;-4.130;2023-01-26T00:24:42;23.58;;;4.32;;
49764;SDS011;35657;51.204;-4.130;2023-01-26T00:27:08;17.00;;;5.05;;
49764;SDS011;35657;51.204;-4.130;2023-01-26T00:29:34;16.65;;;4.13;;
49764;SDS011;35657;51.204;-4.130;2023-01-26T00:31:59;7.85;;;2.63;;
49764;SDS011;35657;51.204;-4.130;2023-01-26T00:34:25;17.80;;;4.38;;
49764;SDS011;35657;51.204;-4.130;2023-01-26T00:36:51;17.67;;;5.35;;
49764;SDS011;35657;51.204;-4.130;2023-01-26T00:39:16;20.23;;;3.50;;
49764;SDS011;35657;51.204;-4.130;2023-01-26T00:41:42;18.38;;;3.33;;
49764;SDS011;35657;51.204;-4.130;2023-01-26T00:46:52;33.08;;;6.03;;
49764;SDS011;35657;51.204;-4.130;2023-01-26T00:49:18;14.27;;;4.25;;
49764;SDS011;35657;51.204;-4.130;2023-01-26T00:51:44;13.77;;;4.10;;
49764;SDS011;35657;51.204;-4.130;2023-01-26T00:54:09;14.00;;;3.83;;
49764;SDS011;35657;51.204;-4.130;2023-01-26T00:56:35;21.92;;;4.43;;
49764;SDS011;35657;51.204;-4.130;2023-01-26T00:59:00;13.63;;;3.40;;
49764;SDS011;35657;51.204;-4.130;2023-01-26T01:01:26;13.45;;;2.90;;
49764;SDS011;35657;51.204;-4.130;2023-01-26T01:03:52;17.40;;;4.13;;
49764;SDS011;35657;51.204;-4.130;2023-01-26T01:06:17;18.05;;;4.10;;
49764;SDS011;35657;51.204;-4.130;2023-01-26T01:08:43;18.48;;;3.35;;
49764;SDS011;35657;51.204;-4.130;2023-01-26T01:11:09;17.50;;;3.70;;
49764;SDS011;35657;51.204;-4.130;2023-01-26T01:13:36;21.52;;;4.70;;
49764;SDS011;35657;51.204;-4.130;2023-01-26T01:16:06;20.08;;;5.28;;
49764;SDS011;35657;51.204;-4.130;2023-01-26T01:18:37;22.73;;;4.43;;
49764;SDS011;35657;51.204;-4.130;2023-01-26T01:21:06;16.42;;;4.53;;
49764;SDS011;35657;51.204;-4.130;2023-01-26T01:23:32;15.02;;;4.15;;
49764;SDS011;35657;51.204;-4.130;2023-01-26T01:25:58;17.33;;;4.18;;
49764;SDS011;35657;51.204;-4.130;2023-01-26T01:28:24;22.15;;;4.85;;
49764;SDS011;35657;51.204;-4.130;2023-01-26T01:30:50;22.95;;;5.82;;
49764;SDS011;35657;51.204;-4.130;2023-01-26T01:33:16;15.55;;;4.30;;
49764;SDS011;35657;51.204;-4.130;2023-01-26T01:35:42;17.85;;;4.22;;
49764;SDS011;35657;51.204;-4.130;2023-01-26T01:38:08;13.82;;;3.17;;
49764;SDS011;35657;51.204;-4.130;2023-01-26T01:40:33;12.20;;;3.22;;
49764;SDS011;35657;51.204;-4.130;2023-01-26T01:42:59;18.85;;;4.35;;
49764;SDS011;35657;51.204;-4.130;2023-01-26T01:47:51;15.40;;;3.30;;
49764;SDS011;35657;51.204;-4.130;2023-01-26T01:50:21;21.65;;;4.97;;
49764;SDS011;35657;51.204;-4.130;2023-01-26T01:52:48;16.88;;;3.05;;
49764;SDS011;35657;51.204;-4.130;2023-01-26T01:55:15;18.17;;;3.95;;
49764;SDS011;35657;51.204;-4.130;2023-01-26T01:57:42;17.55;;;4.05;;
49764;SDS011;35657;51.204;-4.130;2023-01-26T02:00:17;21.00;;;4.40;;
49764;SDS011;35657;51.204;-4.130;2023-01-26T02:02:46;19.27;;;3.83;;
49764;SDS011;35657;51.204;-4.130;2023-01-26T02:05:36;17.80;;;4.25;;
49764;SDS011;35657;51.204;-4.130;2023-01-26T02:08:12;23.17;;;3.90;;
49764;SDS011;35657;51.204;-4.130;2023-01-26T02:10:39;6.55;;;2.20;;
49764;SDS011;35657;51.204;-4.130;2023-01-26T02:13:08;12.40;;;4.20;;
49764;SDS011;35657;51.204;-4.130;2023-01-26T02:15:35;22.05;;;5.18;;
49764;SDS011;35657;51.204;-4.130;2023-01-26T02:18:02;16.45;;;3.15;;
49764;SDS011;35657;51.204;-4.130;2023-01-26T02:28:41;19.15;;;4.47;;
49764;SDS011;35657;51.204;-4.130;2023-01-26T02:31:10;14.18;;;3.85;;
49764;SDS011;35657;51.204;-4.130;2023-01-26T02:33:37;18.67;;;4.88;;
49764;SDS011;35657;51.204;-4.130;2023-01-26T02:36:03;17.70;;;4.85;;
49764;SDS011;35657;51.204;-4.130;2023-01-26T02:38:38;22.05;;;4.15;;
49764;SDS011;35657;51.204;-4.130;2023-01-26T02:41:08;16.05;;;4.15;;
49764;SDS011;35657;51.204;-4.130;2023-01-26T02:43:36;9.07;;;2.10;;
49764;SDS011;35657;51.204;-4.130;2023-01-26T02:46:03;30.50;;;5.38;;
49764;SDS011;35657;51.204;-4.130;2023-01-26T02:48:29;12.43;;;2.67;;
49764;SDS011;35657;51.204;-4.130;2023-01-26T02:53:39;19.23;;;3.67;;
49764;SDS011;35657;51.204;-4.130;2023-01-26T02:56:04;11.18;;;2.83;;
49764;SDS011;35657;51.204;-4.130;2023-01-26T02:58:30;13.60;;;2.60;;
49764;SDS011;35657;51.204;-4.130;2023-01-26T03:00:56;8.93;;;2.42;;
49764;SDS011;35657;51.204;-4.130;2023-01-26T03:03:25;20.08;;;3.63;;
49764;SDS011;35657;51.204;-4.130;2023-01-26T03:06:10;14.32;;;2.67;;
49764;SDS011;35657;51.204;-4.130;2023-01-26T03:08:37;21.30;;;4.63;;
49764;SDS011;35657;51.204;-4.130;2023-01-26T03:11:04;12.38;;;2.45;;
49764;SDS011;35657;51.204;-4.130;2023-01-26T03:13:31;18.27;;;3.58;;
49764;SDS011;35657;51.204;-4.130;2023-01-26T03:15:56;15.77;;;3.40;;
49764;SDS011;35657;51.204;-4.130;2023-01-26T03:18:26;12.65;;;3.28;;
49764;SDS011;35657;51.204;-4.130;2023-01-26T03:21:12;10.90;;;3.25;;
49764;SDS011;35657;51.204;-4.130;2023-01-26T03:23:58;8.32;;;2.20;;
49764;SDS011;35657;51.204;-4.130;2023-01-26T03:26:43;18.95;;;4.07;;
49764;SDS011;35657;51.204;-4.130;2023-01-26T03:29:27;7.28;;;2.40;;
49764;SDS011;35657;51.204;-4.130;2023-01-26T03:31:53;8.30;;;1.88;;
49764;SDS011;35657;51.204;-4.130;2023-01-26T03:34:19;8.27;;;2.22;;
49764;SDS011;35657;51.204;-4.130;2023-01-26T03:36:45;8.75;;;1.95;;
49764;SDS011;35657;51.204;-4.130;2023-01-26T03:39:12;17.38;;;3.10;;
49764;SDS011;35657;51.204;-4.130;2023-01-26T03:41:57;20.33;;;3.70;;
49764;SDS011;35657;51.204;-4.130;2023-01-26T03:44:42;15.18;;;3.85;;
49764;SDS011;35657;51.204;-4.130;2023-01-26T03:47:26;10.55;;;1.73;;
49764;SDS011;35657;51.204;-4.130;2023-01-26T03:50:11;14.55;;;3.97;;
49764;SDS011;35657;51.204;-4.130;2023-01-26T03:52:55;13.80;;;2.22;;
49764;SDS011;35657;51.204;-4.130;2023-01-26T03:55:39;10.82;;;2.33;;
49764;SDS011;35657;51.204;-4.130;2023-01-26T03:58:23;7.97;;;1.90;;
49764;SDS011;35657;51.204;-4.130;2023-01-26T04:00:49;10.93;;;2.80;;
49764;SDS011;35657;51.204;-4.130;2023-01-26T04:03:15;18.77;;;4.65;;
49764;SDS011;35657;51.204;-4.130;2023-01-26T04:05:59;11.52;;;2.90;;
49764;SDS011;35657;51.204;-4.130;2023-01-26T04:08:45;8.32;;;1.90;;
49764;SDS011;35657;51.204;-4.130;2023-01-26T04:11:11;11.43;;;3.35;;
49764;SDS011;35657;51.204;-4.130;2023-01-26T04:13:38;9.45;;;2.67;;
49764;SDS011;35657;51.204;-4.130;2023-01-26T04:16:22;8.10;;;2.83;;
49764;SDS011;35657;51.204;-4.130;2023-01-26T04:19:06;9.35;;;2.15;;
49764;SDS011;35657;51.204;-4.130;2023-01-26T04:21:50;13.48;;;3.13;;
49764;SDS011;35657;51.204;-4.130;2023-01-26T04:24:16;7.88;;;2.80;;
49764;SDS011;35657;51.204;-4.130;2023-01-26T04:26:46;9.00;;;2.08;;
49764;SDS011;35657;51.204;-4.130;2023-01-26T04:29:13;11.90;;;2.08;;
49764;SDS011;35657;51.204;-4.130;2023-01-26T04:31:40;12.20;;;2.05;;
49764;SDS011;35657;51.204;-4.130;2023-01-26T04:34:09;8.73;;;2.13;;
49764;SDS011;35657;51.204;-4.130;2023-01-26T04:36:36;10.00;;;2.08;;
49764;SDS011;35657;51.204;-4.130;2023-01-26T04:39:02;6.97;;;1.60;;
49764;SDS011;35657;51.204;-4.130;2023-01-26T04:41:28;6.18;;;1.80;;
49764;SDS011;35657;51.204;-4.130;2023-01-26T04:43:55;13.05;;;2.63;;
49764;SDS011;35657;51.204;-4.130;2023-01-26T04:46:21;12.43;;;3.55;;
49764;SDS011;35657;51.204;-4.130;2023-01-26T04:48:47;11.05;;;1.60;;
49764;SDS011;35657;51.204;-4.130;2023-01-26T04:51:19;9.73;;;2.80;;
49764;SDS011;35657;51.204;-4.130;2023-01-26T04:53:46;11.63;;;3.35;;
49764;SDS011;35657;51.204;-4.130;2023-01-26T04:56:23;14.80;;;2.00;;
49764;SDS011;35657;51.204;-4.130;2023-01-26T04:58:51;4.00;;;1.40;;
49764;SDS011;35657;51.204;-4.130;2023-01-26T05:01:17;6.65;;;1.80;;
49764;SDS011;35657;51.204;-4.130;2023-01-26T05:03:43;7.68;;;2.67;;
49764;SDS011;35657;51.204;-4.130;2023-01-26T05:06:09;10.60;;;1.67;;
49764;SDS011;35657;51.204;-4.130;2023-01-26T05:08:36;10.23;;;2.47;;
49764;SDS011;35657;51.204;-4.130;2023-01-26T05:11:02;9.20;;;2.75;;
49764;SDS011;35657;51.204;-4.130;2023-01-26T05:13:28;11.48;;;1.65;;
49764;SDS011;35657;51.204;-4.130;2023-01-26T05:15:54;7.95;;;1.30;;
49764;SDS011;35657;51.204;-4.130;2023-01-26T05:18:19;8.38;;;1.48;;
49764;SDS011;35657;51.204;-4.130;2023-01-26T05:20:45;14.95;;;2.47;;
49764;SDS011;35657;51.204;-4.130;2023-01-26T05:23:12;14.80;;;2.05;;
49764;SDS011;35657;51.204;-4.130;2023-01-26T05:25:37;7.70;;;1.90;;
49764;SDS011;35657;51.204;-4.130;2023-01-26T05:28:04;12.35;;;1.80;;
49764;SDS011;35657;51.204;-4.130;2023-01-26T05:30:30;4.82;;;1.27;;
49764;SDS011;35657;51.204;-4.130;2023-01-26T05:32:59;9.00;;;1.25;;
49764;SDS011;35657;51.204;-4.130;2023-01-26T05:35:29;6.57;;;1.17;;
49764;SDS011;35657;51.204;-4.130;2023-01-26T05:37:55;8.60;;;1.67;;
49764;SDS011;35657;51.204;-4.130;2023-01-26T05:40:21;9.35;;;2.90;;
49764;SDS011;35657;51.204;-4.130;2023-01-26T05:42:47;5.70;;;1.70;;
49764;SDS011;35657;51.204;-4.130;2023-01-26T05:45:13;6.03;;;1.80;;
49764;SDS011;35657;51.204;-4.130;2023-01-26T05:47:39;7.53;;;1.77;;
49764;SDS011;35657;51.204;-4.130;2023-01-26T05:50:07;11.90;;;1.88;;
49764;SDS011;35657;51.204;-4.130;2023-01-26T05:52:33;8.82;;;2.10;;
49764;SDS011;35657;51.204;-4.130;2023-01-26T05:54:58;11.13;;;2.05;;
49764;SDS011;35657;51.204;-4.130;2023-01-26T05:57:26;11.95;;;2.00;;
49764;SDS011;35657;51.204;-4.130;2023-01-26T05:59:51;13.88;;;1.73;;
49764;SDS011;35657;51.204;-4.130;2023-01-26T06:02:17;9.65;;;2.97;;
49764;SDS011;35657;51.204;-4.130;2023-01-26T06:04:43;6.85;;;1.42;;
49764;SDS011;35657;51.204;-4.130;2023-01-26T06:07:09;7.97;;;1.63;;
49764;SDS011;35657;51.204;-4.130;2023-01-26T06:09:37;8.65;;;1.40;;
49764;SDS011;35657;51.204;-4.130;2023-01-26T06:12:04;8.48;;;2.03;;
49764;SDS011;35657;51.204;-4.130;2023-01-26T06:14:30;5.65;;;1.83;;
49764;SDS011;35657;51.204;-4.130;2023-01-26T06:16:56;11.73;;;2.08;;
49764;SDS011;35657;51.204;-4.130;2023-01-26T06:19:22;8.00;;;1.35;;
49764;SDS011;35657;51.204;-4.130;2023-01-26T06:21:47;10.25;;;2.70;;
49764;SDS011;35657;51.204;-4.130;2023-01-26T06:24:13;8.48;;;1.80;;
49764;SDS011;35657;51.204;-4.130;2023-01-26T06:26:39;11.32;;;2.22;;
49764;SDS011;35657;51.204;-4.130;2023-01-26T06:29:05;8.82;;;1.98;;
49764;SDS011;35657;51.204;-4.130;2023-01-26T06:31:31;12.82;;;1.65;;
49764;SDS011;35657;51.204;-4.130;2023-01-26T06:33:59;17.85;;;2.63;;
49764;SDS011;35657;51.204;-4.130;2023-01-26T06:36:25;11.75;;;2.17;;
49764;SDS011;35657;51.204;-4.130;2023-01-26T06:38:52;12.40;;;2.85;;
49764;SDS011;35657;51.204;-4.130;2023-01-26T06:41:18;15.40;;;1.80;;
49764;SDS011;35657;51.204;-4.130;2023-01-26T06:43:44;12.13;;;1.45;;
49764;SDS011;35657;51.204;-4.130;2023-01-26T06:46:12;14.30;;;1.60;;
49764;SDS011;35657;51.204;-4.130;2023-01-26T06:48:39;10.98;;;3.13;;
49764;SDS011;35657;51.204;-4.130;2023-01-26T06:53:58;14.57;;;2.40;;
49764;SDS011;35657;51.204;-4.130;2023-01-26T06:56:24;13.43;;;1.92;;
49764;SDS011;35657;51.204;-4.130;2023-01-26T06:58:52;7.55;;;1.58;;
49764;SDS011;35657;51.204;-4.130;2023-01-26T07:01:20;12.02;;;1.65;;
49764;SDS011;35657;51.204;-4.130;2023-01-26T07:03:48;9.27;;;2.05;;
49764;SDS011;35657;51.204;-4.130;2023-01-26T07:06:14;5.43;;;1.58;;
49764;SDS011;35657;51.204;-4.130;2023-01-26T07:08:40;10.10;;;2.10;;
49764;SDS011;35657;51.204;-4.130;2023-01-26T07:11:06;9.32;;;1.83;;
49764;SDS011;35657;51.204;-4.130;2023-01-26T07:13:33;10.63;;;2.38;;
49764;SDS011;35657;51.204;-4.130;2023-01-26T07:16:02;10.45;;;1.63;;
49764;SDS011;35657;51.204;-4.130;2023-01-26T07:18:29;6.63;;;1.67;;
49764;SDS011;35657;51.204;-4.130;2023-01-26T07:20:59;12.63;;;2.83;;
49764;SDS011;35657;51.204;-4.130;2023-01-26T07:23:25;6.82;;;1.67;;
49764;SDS011;35657;51.204;-4.130;2023-01-26T07:25:51;10.48;;;2.92;;
49764;SDS011;35657;51.204;-4.130;2023-01-26T07:28:17;12.45;;;2.28;;
49764;SDS011;35657;51.204;-4.130;2023-01-26T07:30:43;4.63;;;1.20;;
49764;SDS011;35657;51.204;-4.130;2023-01-26T07:33:08;8.95;;;1.98;;
49764;SDS011;35657;51.204;-4.130;2023-01-26T07:35:34;9.15;;;1.85;;
49764;SDS011;35657;51.204;-4.130;2023-01-26T07:38:02;10.65;;;1.70;;
49764;SDS011;35657;51.204;-4.130;2023-01-26T07:40:29;12.23;;;2.38;;
49764;SDS011;35657;51.204;-4.130;2023-01-26T07:42:55;5.75;;;1.20;;
49764;SDS011;35657;51.204;-4.130;2023-01-26T07:45:21;8.02;;;1.65;;
49764;SDS011;35657;51.204;-4.130;2023-01-26T07:47:47;6.82;;;1.55;;
49764;SDS011;35657;51.204;-4.130;2023-01-26T07:50:13;6.65;;;1.80;;
49764;SDS011;35657;51.204;-4.130;2023-01-26T07:52:39;5.45;;;1.77;;
49764;SDS011;35657;51.204;-4.130;2023-01-26T07:55:05;10.73;;;1.95;;
49764;SDS011;35657;51.204;-4.130;2023-01-26T07:57:31;7.85;;;1.60;;
49764;SDS011;35657;51.204;-4.130;2023-01-26T07:59:58;8.02;;;1.77;;
49764;SDS011;35657;51.204;-4.130;2023-01-26T08:02:24;8.23;;;2.15;;
49764;SDS011;35657;51.204;-4.130;2023-01-26T08:04:49;7.78;;;2.45;;
49764;SDS011;35657;51.204;-4.130;2023-01-26T08:07:15;10.57;;;2.05;;
49764;SDS011;35657;51.204;-4.130;2023-01-26T08:09:41;8.43;;;1.80;;
49764;SDS011;35657;51.204;-4.130;2023-01-26T08:12:07;7.22;;;1.15;;
49764;SDS011;35657;51.204;-4.130;2023-01-26T08:14:32;10.32;;;1.85;;
49764;SDS011;35657;51.204;-4.130;2023-01-26T08:17:00;5.45;;;1.77;;
49764;SDS011;35657;51.204;-4.130;2023-01-26T08:19:25;19.65;;;3.08;;
49764;SDS011;35657;51.204;-4.130;2023-01-26T08:21:51;5.82;;;1.75;;
49764;SDS011;35657;51.204;-4.130;2023-01-26T08:24:18;7.00;;;1.25;;
49764;SDS011;35657;51.204;-4.130;2023-01-26T08:26:44;4.88;;;1.77;;
49764;SDS011;35657;51.204;-4.130;2023-01-26T08:29:10;8.98;;;1.77;;
49764;SDS011;35657;51.204;-4.130;2023-01-26T08:31:36;10.02;;;1.92;;
49764;SDS011;35657;51.204;-4.130;2023-01-26T08:34:02;11.95;;;1.48;;
49764;SDS011;35657;51.204;-4.130;2023-01-26T08:36:28;12.75;;;1.70;;
49764;SDS011;35657;51.204;-4.130;2023-01-26T08:38:54;11.07;;;2.63;;
49764;SDS011;35657;51.204;-4.130;2023-01-26T08:41:20;6.82;;;2.35;;
49764;SDS011;35657;51.204;-4.130;2023-01-26T08:43:46;5.07;;;1.75;;
49764;SDS011;35657;51.204;-4.130;2023-01-26T08:46:12;9.65;;;2.53;;
49764;SDS011;35657;51.204;-4.130;2023-01-26T08:48:39;9.35;;;2.58;;
49764;SDS011;35657;51.204;-4.130;2023-01-26T08:51:05;10.52;;;2.08;;
49764;SDS011;35657;51.204;-4.130;2023-01-26T08:53:32;9.18;;;1.52;;
49764;SDS011;35657;51.204;-4.130;2023-01-26T08:56:04;9.00;;;2.75;;
49764;SDS011;35657;51.204;-4.130;2023-01-26T08:58:31;5.80;;;1.30;;
49764;SDS011;35657;51.204;-4.130;2023-01-26T09:00:58;4.90;;;1.27;;
49764;SDS011;35657;51.204;-4.130;2023-01-26T09:03:24;8.15;;;1.50;;
49764;SDS011;35657;51.204;-4.130;2023-01-26T09:05:49;5.93;;;1.38;;
49764;SDS011;35657;51.204;-4.130;2023-01-26T09:08:16;6.80;;;1.33;;
49764;SDS011;35657;51.204;-4.130;2023-01-26T09:10:42;9.95;;;2.05;;
49764;SDS011;35657;51.204;-4.130;2023-01-26T09:13:09;6.90;;;2.15;;
49764;SDS011;35657;51.204;-4.130;2023-01-26T09:15:36;6.68;;;1.75;;
49764;SDS011;35657;51.204;-4.130;2023-01-26T09:18:02;11.40;;;1.85;;
49764;SDS011;35657;51.204;-4.130;2023-01-26T09:20:28;8.57;;;1.90;;
49764;SDS011;35657;51.204;-4.130;2023-01-26T09:22:54;6.97;;;1.77;;
49764;SDS011;35657;51.204;-4.130;2023-01-26T09:25:19;11.18;;;2.42;;
49764;SDS011;35657;51.204;-4.130;2023-01-26T09:27:45;4.53;;;1.40;;
49764;SDS011;35657;51.204;-4.130;2023-01-26T09:30:11;7.78;;;1.70;;
49764;SDS011;35657;51.204;-4.130;2023-01-26T09:32:37;13.73;;;1.67;;
49764;SDS011;35657;51.204;-4.130;2023-01-26T09:35:03;11.35;;;1.67;;
49764;SDS011;35657;51.204;-4.130;2023-01-26T09:37:29;7.80;;;2.60;;
49764;SDS011;35657;51.204;-4.130;2023-01-26T09:39:54;7.85;;;1.98;;
49764;SDS011;35657;51.204;-4.130;2023-01-26T09:50:26;7.53;;;1.60;;
49764;SDS011;35657;51.204;-4.130;2023-01-26T09:53:03;7.13;;;1.40;;
49764;SDS011;35657;51.204;-4.130;2023-01-26T09:55:34;9.23;;;1.95;;
49764;SDS011;35657;51.204;-4.130;2023-01-26T09:58:20;7.00;;;1.50;;
49764;SDS011;35657;51.204;-4.130;2023-01-26T10:01:00;6.93;;;2.33;;
49764;SDS011;35657;51.204;-4.130;2023-01-26T10:03:29;4.78;;;2.03;;
49764;SDS011;35657;51.204;-4.130;2023-01-26T10:08:38;9.20;;;1.50;;
49764;SDS011;35657;51.204;-4.130;2023-01-26T10:13:46;4.72;;;1.48;;
49764;SDS011;35657;51.204;-4.130;2023-01-26T10:16:15;9.27;;;1.88;;
49764;SDS011;35657;51.204;-4.130;2023-01-26T10:18:52;6.70;;;1.40;;
49764;SDS011;35657;51.204;-4.130;2023-01-26T10:21:31;6.43;;;1.50;;
49764;SDS011;35657;51.204;-4.130;2023-01-26T10:24:01;7.50;;;1.10;;
49764;SDS011;35657;51.204;-4.130;2023-01-26T10:26:29;5.22;;;1.45;;
49764;SDS011;35657;51.204;-4.130;2023-01-26T10:28:58;4.95;;;1.05;;
49764;SDS011;35657;51.204;-4.130;2023-01-26T10:31:29;12.43;;;3.00;;
49764;SDS011;35657;51.204;-4.130;2023-01-26T10:34:00;2.78;;;1.52;;
49764;SDS011;35657;51.204;-4.130;2023-01-26T10:36:34;4.35;;;1.95;;
49764;SDS011;35657;51.204;-4.130;2023-01-26T10:39:04;8.68;;;1.45;;
49764;SDS011;35657;51.204;-4.130;2023-01-26T10:41:31;3.55;;;1.30;;
49764;SDS011;35657;51.204;-4.130;2023-01-26T10:43:58;6.05;;;1.33;;
49764;SDS011;35657;51.204;-4.130;2023-01-26T10:46:37;7.57;;;1.67;;
49764;SDS011;35657;51.204;-4.130;2023-01-26T10:51:33;4.22;;;1.30;;
49764;SDS011;35657;51.204;-4.130;2023-01-26T10:59:32;5.50;;;1.00;;
49764;SDS011;35657;51.204;-4.130;2023-01-26T11:05:28;2.85;;;1.00;;
49764;SDS011;35657;51.204;-4.130;2023-01-26T11:07:41;3.80;;;1.17;;
49764;SDS011;35657;51.204;-4.130;2023-01-26T11:15:47;5.10;;;1.40;;
49764;SDS011;35657;51.204;-4.130;2023-01-26T11:35:11;5.80;;;1.40;;
49764;SDS011;35657;51.204;-4.130;2023-01-26T11:41:05;6.55;;;1.13;;
49764;SDS011;35657;51.204;-4.130;2023-01-26T12:01:08;4.47;;;1.60;;
49764;SDS011;35657;51.204;-4.130;2023-01-26T12:05:51;2.42;;;1.00;;
49764;SDS011;35657;51.204;-4.130;2023-01-26T12:08:25;3.50;;;1.00;;
49764;SDS011;35657;51.204;-4.130;2023-01-26T12:11:07;4.90;;;1.63;;
49764;SDS011;35657;51.204;-4.130;2023-01-26T12:14:00;3.28;;;0.85;;
49764;SDS011;35657;51.204;-4.130;2023-01-26T12:21:50;7.45;;;1.23;;
49764;SDS011;35657;51.204;-4.130;2023-01-26T12:24:26;4.05;;;1.27;;
49764;SDS011;35657;51.204;-4.130;2023-01-26T12:27:01;4.10;;;1.15;;
49764;SDS011;35657;51.204;-4.130;2023-01-26T12:29:32;2.33;;;0.80;;
49764;SDS011;35657;51.204;-4.130;2023-01-26T12:32:11;3.50;;;1.58;;
49764;SDS011;35657;51.204;-4.130;2023-01-26T12:34:38;5.10;;;1.10;;
49764;SDS011;35657;51.204;-4.130;2023-01-26T12:37:09;3.08;;;1.00;;
49764;SDS011;35657;51.204;-4.130;2023-01-26T12:45:06;3.80;;;1.25;;
49764;SDS011;35657;51.204;-4.130;2023-01-26T12:47:38;4.25;;;1.50;;
49764;SDS011;35657;51.204;-4.130;2023-01-26T12:53:00;2.92;;;0.85;;
49764;SDS011;35657;51.204;-4.130;2023-01-26T12:55:31;8.52;;;2.03;;
49764;SDS011;35657;51.204;-4.130;2023-01-26T12:58:09;3.63;;;0.98;;
49764;SDS011;35657;51.204;-4.130;2023-01-26T13:00:47;2.92;;;0.88;;
49764;SDS011;35657;51.204;-4.130;2023-01-26T13:03:27;3.65;;;1.20;;
49764;SDS011;35657;51.204;-4.130;2023-01-26T13:11:03;1.48;;;1.08;;
49764;SDS011;35657;51.204;-4.130;2023-01-26T13:18:47;3.75;;;1.10;;
49764;SDS011;35657;51.204;-4.130;2023-01-26T13:21:29;3.75;;;1.20;;
49764;SDS011;35657;51.204;-4.130;2023-01-26T13:26:42;5.30;;;1.15;;
49764;SDS011;35657;51.204;-4.130;2023-01-26T13:31:51;8.88;;;1.77;;
49764;SDS011;35657;51.204;-4.130;2023-01-26T13:34:43;3.25;;;1.00;;
49764;SDS011;35657;51.204;-4.130;2023-01-26T13:39:43;2.90;;;1.13;;
49764;SDS011;35657;51.204;-4.130;2023-01-26T13:45:49;7.78;;;1.85;;
49764;SDS011;35657;51.204;-4.130;2023-01-26T13:48:15;5.13;;;1.63;;
49764;SDS011;35657;51.204;-4.130;2023-01-26T13:50:50;2.97;;;1.27;;
49764;SDS011;35657;51.204;-4.130;2023-01-26T13:53:32;5.07;;;1.17;;
49764;SDS011;35657;51.204;-4.130;2023-01-26T13:56:06;4.68;;;1.25;;
49764;SDS011;35657;51.204;-4.130;2023-01-26T13:58:44;8.70;;;1.25;;
49764;SDS011;35657;51.204;-4.130;2023-01-26T14:01:11;3.83;;;1.30;;
49764;SDS011;35657;51.204;-4.130;2023-01-26T14:03:37;8.98;;;3.05;;
49764;SDS011;35657;51.204;-4.130;2023-01-26T14:06:07;4.20;;;1.38;;
49764;SDS011;35657;51.204;-4.130;2023-01-26T14:08:45;7.72;;;1.40;;
49764;SDS011;35657;51.204;-4.130;2023-01-26T14:11:17;2.78;;;1.27;;
49764;SDS011;35657;51.204;-4.130;2023-01-26T14:13:48;6.78;;;1.20;;
49764;SDS011;35657;51.204;-4.130;2023-01-26T14:16:30;6.18;;;1.23;;
49764;SDS011;35657;51.204;-4.130;2023-01-26T14:19:15;7.72;;;2.80;;
49764;SDS011;35657;51.204;-4.130;2023-01-26T14:21:47;3.25;;;1.17;;
49764;SDS011;35657;51.204;-4.130;2023-01-26T14:24:36;1.95;;;1.15;;
49764;SDS011;35657;51.204;-4.130;2023-01-26T14:29:44;4.25;;;1.67;;
49764;SDS011;35657;51.204;-4.130;2023-01-26T14:32:13;8.70;;;2.50;;
49764;SDS011;35657;51.204;-4.130;2023-01-26T14:34:49;11.43;;;3.63;;
49764;SDS011;35657;51.204;-4.130;2023-01-26T14:37:20;2.55;;;1.67;;
49764;SDS011;35657;51.204;-4.130;2023-01-26T14:39:46;4.22;;;1.33;;
49764;SDS011;35657;51.204;-4.130;2023-01-26T14:42:16;3.75;;;1.95;;
49764;SDS011;35657;51.204;-4.130;2023-01-26T14:44:43;4.10;;;1.40;;
49764;SDS011;35657;51.204;-4.130;2023-01-26T14:47:43;6.75;;;1.90;;
49764;SDS011;35657;51.204;-4.130;2023-01-26T14:50:04;9.40;;;3.92;;
49764;SDS011;35657;51.204;-4.130;2023-01-26T14:52:35;7.47;;;2.72;;
49764;SDS011;35657;51.204;-4.130;2023-01-26T14:55:11;3.60;;;2.13;;
49764;SDS011;35657;51.204;-4.130;2023-01-26T14:57:41;5.75;;;2.22;;
49764;SDS011;35657;51.204;-4.130;2023-01-26T15:00:17;4.95;;;2.60;;
49764;SDS011;35657;51.204;-4.130;2023-01-26T15:02:48;3.85;;;1.70;;
49764;SDS011;35657;51.204;-4.130;2023-01-26T15:05:17;6.95;;;1.65;;
49764;SDS011;35657;51.204;-4.130;2023-01-26T15:07:55;4.25;;;1.70;;
49764;SDS011;35657;51.204;-4.130;2023-01-26T15:15:36;5.00;;;2.08;;
49764;SDS011;35657;51.204;-4.130;2023-01-26T15:23:15;7.45;;;2.10;;
49764;SDS011;35657;51.204;-4.130;2023-01-26T15:25:42;9.88;;;1.70;;
49764;SDS011;35657;51.204;-4.130;2023-01-26T15:28:15;5.65;;;1.80;;
49764;SDS011;35657;51.204;-4.130;2023-01-26T15:36:01;8.07;;;2.25;;
49764;SDS011;35657;51.204;-4.130;2023-01-26T15:38:27;4.15;;;1.40;;
49764;SDS011;35657;51.204;-4.130;2023-01-26T15:40:53;2.42;;;1.75;;
49764;SDS011;35657;51.204;-4.130;2023-01-26T15:43:19;6.93;;;2.30;;
49764;SDS011;35657;51.204;-4.130;2023-01-26T15:45:52;5.63;;;2.63;;
49764;SDS011;35657;51.204;-4.130;2023-01-26T15:50:45;6.68;;;2.40;;
49764;SDS011;35657;51.204;-4.130;2023-01-26T15:53:15;3.97;;;1.33;;
49764;SDS011;35657;51.204;-4.130;2023-01-26T15:55:46;5.60;;;1.50;;
49764;SDS011;35657;51.204;-4.130;2023-01-26T15:58:23;5.18;;;1.60;;
49764;SDS011;35657;51.204;-4.130;2023-01-26T16:00:49;4.65;;;1.88;;
49764;SDS011;35657;51.204;-4.130;2023-01-26T16:03:17;5.30;;;1.63;;
49764;SDS011;35657;51.204;-4.130;2023-01-26T16:05:44;4.43;;;0.98;;
49764;SDS011;35657;51.204;-4.130;2023-01-26T16:08:14;4.55;;;1.52;;
49764;SDS011;35657;51.204;-4.130;2023-01-26T16:10:41;6.30;;;1.52;;
49764;SDS011;35657;51.204;-4.130;2023-01-26T16:13:08;4.78;;;1.48;;
49764;SDS011;35657;51.204;-4.130;2023-01-26T16:18:06;6.75;;;2.30;;
49764;SDS011;35657;51.204;-4.130;2023-01-26T16:20:35;9.50;;;2.60;;
49764;SDS011;35657;51.204;-4.130;2023-01-26T16:23:05;6.70;;;2.42;;
49764;SDS011;35657;51.204;-4.130;2023-01-26T16:25:41;3.38;;;1.38;;
49764;SDS011;35657;51.204;-4.130;2023-01-26T16:28:07;5.65;;;2.10;;
49764;SDS011;35657;51.204;-4.130;2023-01-26T16:30:32;3.53;;;1.58;;
49764;SDS011;35657;51.204;-4.130;2023-01-26T16:32:58;3.38;;;0.93;;
49764;SDS011;35657;51.204;-4.130;2023-01-26T16:35:24;7.18;;;2.15;;
49764;SDS011;35657;51.204;-4.130;2023-01-26T16:37:52;8.50;;;1.90;;
49764;SDS011;35657;51.204;-4.130;2023-01-26T16:40:18;4.50;;;1.55;;
49764;SDS011;35657;51.204;-4.130;2023-01-26T16:42:48;7.75;;;1.67;;
49764;SDS011;35657;51.204;-4.130;2023-01-26T16:45:17;10.77;;;2.60;;
49764;SDS011;35657;51.204;-4.130;2023-01-26T16:47:48;6.72;;;2.53;;
49764;SDS011;35657;51.204;-4.130;2023-01-26T16:50:16;7.85;;;3.92;;
49764;SDS011;35657;51.204;-4.130;2023-01-26T16:52:42;6.18;;;3.05;;
49764;SDS011;35657;51.204;-4.130;2023-01-26T16:55:09;5.38;;;2.55;;
49764;SDS011;35657;51.204;-4.130;2023-01-26T16:57:40;10.13;;;2.83;;
49764;SDS011;35657;51.204;-4.130;2023-01-26T17:00:20;3.70;;;1.08;;
49764;SDS011;35657;51.204;-4.130;2023-01-26T17:02:46;4.60;;;1.65;;
49764;SDS011;35657;51.204;-4.130;2023-01-26T17:05:15;4.53;;;1.35;;
49764;SDS011;35657;51.204;-4.130;2023-01-26T17:07:43;3.90;;;1.40;;